createdAt,value
2018-04-20T00:01:12.441Z,68.10
2018-04-20T00:03:39.901Z,68.70
2018-04-20T00:06:07.385Z,67.90
2018-04-20T00:08:34.844Z,68.90
2018-04-20T00:11:02.330Z,68.40
2018-04-20T00:13:30.609Z,69.10
2018-04-20T00:15:58.853Z,69.10
2018-04-20T00:18:26.332Z,69.00
2018-04-20T00:20:54.564Z,69.60
2018-04-20T00:23:22.044Z,69.60
2018-04-20T00:25:49.520Z,69.70
2018-04-20T00:28:18.500Z,70.80
2018-04-20T00:30:45.965Z,70.80
2018-04-20T00:33:13.471Z,69.50
2018-04-20T00:35:40.958Z,70.80
2018-04-20T00:38:08.423Z,70.70
2018-04-20T00:40:35.912Z,71.40
2018-04-20T00:43:04.152Z,71.00
2018-04-20T00:45:31.633Z,71.00
2018-04-20T00:47:59.102Z,70.80
2018-04-20T00:50:27.360Z,71.20
2018-04-20T00:52:54.819Z,71.20
2018-04-20T00:55:23.829Z,72.70
2018-04-20T00:57:52.057Z,71.90
2018-04-20T01:00:19.586Z,71.90
2018-04-20T01:02:47.799Z,71.30
2018-04-20T01:05:15.285Z,71.30
2018-04-20T01:07:42.749Z,71.80
2018-04-20T01:10:10.240Z,72.50
2018-04-20T01:12:37.733Z,72.50
2018-04-20T01:15:05.203Z,72.90
2018-04-20T01:17:32.700Z,73.00
2018-04-20T01:20:00.950Z,72.90
2018-04-20T01:22:28.440Z,72.90
2018-04-20T01:24:56.661Z,73.50
2018-04-20T01:27:24.129Z,73.50
2018-04-20T01:29:51.637Z,74.10
2018-04-20T01:32:19.900Z,73.70
2018-04-20T01:34:48.141Z,74.90
2018-04-20T01:37:15.648Z,74.90
2018-04-20T01:39:43.105Z,74.00
2018-04-20T01:42:11.357Z,73.30
2018-04-20T01:44:38.839Z,73.30
2018-04-20T01:47:07.090Z,74.20
2018-04-20T01:49:34.580Z,74.20
2018-04-20T01:52:02.055Z,74.50
2018-04-20T01:54:29.533Z,75.00
2018-04-20T01:56:57.009Z,74.90
2018-04-20T01:59:24.507Z,75.50
2018-04-20T02:01:52.736Z,76.10
2018-04-20T02:04:20.223Z,76.10
2018-04-20T02:06:48.449Z,75.60
2018-04-20T02:09:15.932Z,75.60
2018-04-20T02:11:43.408Z,76.50
2018-04-20T02:14:10.883Z,75.50
2018-04-20T02:16:39.124Z,76.90
2018-04-20T02:19:06.621Z,76.90
2018-04-20T02:21:34.885Z,77.60
2018-04-20T02:24:02.348Z,77.60
2018-04-20T02:26:29.861Z,77.50
2018-04-20T02:28:57.331Z,76.70
2018-04-20T02:31:24.830Z,76.50
2018-04-20T02:33:53.070Z,76.20
2018-04-20T02:36:20.582Z,76.20
2018-04-20T02:38:48.006Z,87.80
2018-04-20T02:41:15.514Z,88.30
2018-04-20T02:43:42.979Z,87.80
2018-04-20T02:46:10.454Z,88.20
2018-04-20T02:48:37.960Z,86.70
2018-04-20T02:51:06.206Z,87.50
2018-04-20T02:53:33.698Z,87.40
2018-04-20T02:56:02.019Z,87.10
2018-04-20T02:58:29.498Z,87.10
2018-04-20T03:00:56.984Z,87.70
2018-04-20T03:03:24.467Z,88.20
2018-04-20T03:05:51.940Z,88.50
2018-04-20T03:08:19.486Z,88.40
2018-04-20T03:10:46.941Z,88.50
2018-04-20T03:13:14.429Z,87.90
2018-04-20T03:15:41.886Z,89.00
2018-04-20T03:18:09.391Z,88.40
2018-04-20T03:20:36.852Z,88.60
2018-04-20T03:23:05.101Z,89.40
2018-04-20T03:25:32.596Z,89.40
2018-04-20T03:28:00.860Z,89.70
2018-04-20T03:30:28.319Z,89.70
2018-04-20T03:32:55.773Z,89.80
2018-04-20T03:35:23.272Z,89.40
2018-04-20T03:37:50.850Z,89.30
2018-04-20T03:40:19.065Z,90.00
2018-04-20T03:42:46.537Z,90.00
2018-04-20T03:45:14.852Z,90.10
2018-04-20T03:47:42.333Z,90.10
2018-04-20T03:50:09.801Z,90.10
2018-04-20T03:52:37.305Z,89.60
2018-04-20T03:55:04.792Z,89.40
2018-04-20T03:57:32.270Z,89.50
2018-04-20T03:59:59.755Z,89.70
2018-04-20T04:02:27.219Z,90.20
2018-04-20T04:04:55.472Z,90.00
2018-04-20T04:07:22.972Z,90.00
2018-04-20T04:09:51.202Z,89.70
2018-04-20T04:12:18.719Z,89.70
2018-04-20T04:14:46.955Z,90.10
2018-04-20T04:17:26.545Z,90.10
2018-04-20T04:20:06.039Z,90.30
2018-04-20T04:22:45.394Z,90.40
2018-04-20T04:25:25.625Z,89.60
2018-04-20T04:28:05.045Z,89.60
2018-04-20T04:30:32.517Z,90.30
2018-04-20T04:33:00.021Z,90.10
2018-04-20T04:35:27.489Z,90.20
2018-04-20T04:37:54.981Z,90.40
2018-04-20T04:40:22.474Z,90.40
2018-04-20T04:42:49.909Z,90.40
2018-04-20T04:45:17.371Z,90.50
2018-04-20T04:47:44.880Z,90.30
2018-04-20T04:50:12.363Z,90.40
2018-04-20T04:52:39.860Z,90.40
2018-04-20T04:55:07.340Z,90.40
2018-04-20T04:57:35.570Z,90.10
2018-04-20T05:00:03.057Z,90.10
2018-04-20T05:02:31.324Z,90.20
2018-04-20T05:04:58.810Z,90.30
2018-04-20T05:07:27.048Z,90.80
2018-04-20T05:09:54.532Z,90.80
2018-04-20T05:12:21.982Z,90.60
2018-04-20T05:14:49.473Z,90.90
2018-04-20T05:17:16.954Z,91.00
2018-04-20T05:19:44.456Z,91.00
2018-04-20T05:22:11.954Z,90.90
2018-04-20T05:24:39.452Z,91.00
2018-04-20T05:27:06.943Z,91.00
2018-04-20T05:29:35.210Z,90.60
2018-04-20T05:32:02.692Z,90.70
2018-04-20T05:34:30.943Z,81.30
2018-04-20T05:36:58.474Z,81.20
2018-04-20T05:39:25.934Z,81.40
2018-04-20T05:41:53.442Z,81.20
2018-04-20T05:44:21.669Z,81.20
2018-04-20T05:46:49.199Z,81.20
2018-04-20T05:49:17.393Z,81.40
2018-04-20T05:51:44.886Z,81.40
2018-04-20T05:54:12.353Z,81.30
2018-04-20T05:56:39.845Z,81.40
2018-04-20T05:59:07.322Z,82.20
2018-04-20T06:01:37.708Z,81.10
2018-04-20T06:04:05.960Z,79.80
2018-04-20T06:06:33.454Z,79.80
2018-04-20T06:09:01.682Z,79.80
2018-04-20T06:11:29.157Z,79.80
2018-04-20T06:13:56.654Z,78.70
2018-04-20T06:16:24.116Z,79.70
2018-04-20T06:18:51.630Z,78.70
2018-04-20T06:21:19.142Z,76.50
2018-04-20T06:23:47.395Z,74.20
2018-04-20T06:26:15.674Z,72.80
2018-04-20T06:28:43.183Z,72.70
2018-04-20T06:31:10.676Z,71.10
2018-04-20T06:33:38.964Z,68.90
2018-04-20T06:36:08.063Z,65.70
2018-04-20T06:38:36.331Z,65.80
2018-04-20T06:41:04.558Z,66.10
2018-04-20T06:43:32.038Z,66.00
2018-04-20T06:45:59.540Z,64.50
2018-04-20T06:48:27.005Z,63.60
2018-04-20T06:50:54.501Z,62.90
2018-04-20T06:53:21.976Z,61.40
2018-04-20T06:55:49.518Z,60.70
2018-04-20T06:58:16.977Z,57.00
2018-04-20T07:00:44.476Z,60.60
2018-04-20T07:03:12.729Z,60.50
2018-04-20T07:05:40.243Z,60.40
2018-04-20T07:08:07.745Z,56.20
2018-04-20T07:10:35.225Z,56.40
2018-04-20T07:13:03.514Z,46.20
2018-04-20T07:15:31.806Z,48.90
2018-04-20T07:17:59.274Z,48.80
2018-04-20T07:20:26.752Z,47.80
2018-04-20T07:22:54.259Z,46.90
2018-04-20T07:25:22.534Z,48.30
2018-04-20T07:27:50.800Z,44.00
2018-04-20T07:30:19.054Z,44.80
2018-04-20T07:32:46.568Z,44.80
2018-04-20T07:35:14.034Z,44.90
2018-04-20T07:37:41.552Z,45.50
2018-04-20T07:40:09.030Z,43.90
2018-04-20T07:42:37.311Z,39.80
2018-04-20T07:45:05.552Z,41.20
2018-04-20T07:47:33.072Z,41.20
2018-04-20T07:50:00.540Z,40.70
2018-04-20T07:52:28.017Z,39.60
2018-04-20T07:54:56.380Z,39.90
2018-04-20T07:57:23.872Z,38.50
2018-04-20T07:59:51.340Z,38.60
2018-04-20T08:02:19.621Z,36.80
2018-04-20T08:04:47.876Z,37.80
2018-04-20T08:07:15.356Z,37.80
2018-04-20T08:09:42.904Z,37.60
2018-04-20T08:12:10.517Z,37.80
2018-04-20T08:14:38.077Z,37.10
2018-04-20T08:17:05.533Z,37.10
2018-04-20T08:19:33.021Z,38.00
2018-04-20T08:22:00.494Z,36.40
2018-04-20T08:24:27.984Z,38.60
2018-04-20T08:26:56.230Z,37.30
2018-04-20T08:29:23.749Z,37.20
2018-04-20T08:31:51.255Z,37.20
2018-04-20T08:34:18.762Z,37.80
2018-04-20T08:36:46.269Z,37.00
2018-04-20T08:39:13.740Z,37.50
2018-04-20T08:41:42.008Z,38.30
2018-04-20T08:44:09.504Z,38.10
2018-04-20T08:46:37.032Z,37.80
2018-04-20T08:49:04.542Z,37.40
2018-04-20T08:51:32.019Z,38.00
2018-04-20T08:53:59.508Z,37.40
2018-04-20T08:56:27.023Z,37.00
2018-04-20T08:58:54.553Z,36.90
2018-04-20T09:01:22.776Z,36.50
2018-04-20T09:03:50.281Z,36.50
2018-04-20T09:06:18.513Z,38.30
2018-04-20T09:08:46.031Z,38.50
2018-04-20T09:11:13.541Z,38.50
2018-04-20T09:13:41.046Z,36.60
2018-04-20T09:16:08.513Z,36.10
2018-04-20T09:18:36.081Z,37.10
2018-04-20T09:21:03.511Z,37.50
2018-04-20T09:23:31.765Z,35.70
2018-04-20T09:25:59.287Z,35.60
2018-04-20T09:28:26.759Z,36.80
2018-04-20T09:30:54.265Z,37.10
2018-04-20T09:33:22.532Z,38.50
2018-04-20T09:35:50.809Z,37.90
2018-04-20T09:38:19.061Z,37.20
2018-04-20T09:40:46.561Z,37.20
2018-04-20T09:43:14.838Z,37.30
2018-04-20T09:45:42.337Z,37.30
2018-04-20T09:48:09.817Z,37.80
2018-04-20T09:50:37.367Z,37.50
2018-04-20T09:53:04.818Z,37.80
2018-04-20T09:55:32.285Z,37.20
2018-04-20T09:57:59.749Z,37.60
2018-04-20T10:00:27.255Z,37.10
2018-04-20T10:02:54.739Z,37.70
2018-04-20T10:05:24.067Z,37.00
2018-04-20T10:07:51.564Z,38.90
2018-04-20T10:10:19.048Z,37.70
2018-04-20T10:12:46.588Z,37.50
2018-04-20T10:15:14.824Z,37.90
2018-04-20T10:17:42.335Z,37.90
2018-04-20T10:20:09.836Z,39.60
2018-04-20T10:22:37.322Z,37.20
2018-04-20T10:25:05.545Z,37.30
2018-04-20T10:27:33.031Z,37.30
2018-04-20T10:30:00.543Z,37.10
2018-04-20T10:32:28.049Z,36.90
2018-04-20T10:34:55.531Z,38.30
2018-04-20T10:37:23.784Z,36.90
2018-04-20T10:39:51.252Z,36.90
2018-04-20T10:42:20.257Z,35.80
2018-04-20T10:44:48.504Z,36.70
2018-04-20T10:47:16.012Z,36.70
2018-04-20T10:49:43.478Z,36.10
2018-04-20T10:52:10.944Z,37.10
2018-04-20T10:54:38.472Z,36.40
2018-04-20T10:57:06.718Z,35.70
2018-04-20T10:59:34.249Z,35.70
2018-04-20T11:02:01.722Z,35.70
2018-04-20T11:04:29.228Z,35.60
2018-04-20T11:06:57.452Z,36.20
2018-04-20T11:09:24.991Z,36.20
2018-04-20T11:11:52.460Z,35.40
2018-04-20T11:14:19.926Z,35.30
2018-04-20T11:16:47.433Z,35.80
2018-04-20T11:19:15.714Z,35.30
2018-04-20T11:21:43.961Z,35.80
2018-04-20T11:24:11.622Z,35.60
2018-04-20T11:26:39.077Z,34.40
2018-04-20T11:29:06.581Z,34.10
2018-04-20T11:31:34.098Z,34.50
2018-04-20T11:34:01.600Z,35.60
2018-04-20T11:36:29.121Z,37.10
2018-04-20T11:38:56.613Z,36.10
2018-04-20T11:41:24.856Z,34.60
2018-04-20T11:43:53.113Z,35.30
2018-04-20T11:46:20.618Z,35.10
2018-04-20T11:48:48.886Z,34.60
2018-04-20T11:51:17.145Z,36.00
2018-04-20T11:53:44.667Z,36.10
2018-04-20T11:56:12.891Z,34.80
2018-04-20T11:58:40.386Z,34.80
2018-04-20T12:01:07.859Z,36.70
2018-04-20T12:03:35.343Z,36.60
2018-04-20T12:06:02.842Z,33.90
2018-04-20T12:08:31.081Z,35.10
2018-04-20T12:10:58.565Z,34.90
2018-04-20T12:13:26.833Z,35.80
2018-04-20T12:15:55.085Z,35.20
2018-04-20T12:18:22.549Z,35.20
2018-04-20T12:20:50.065Z,34.60
2018-04-20T12:23:17.553Z,34.30
2018-04-20T12:25:45.093Z,35.20
2018-04-20T12:28:12.569Z,34.50
2018-04-20T12:30:40.034Z,35.10
2018-04-20T12:33:07.524Z,34.40
2018-04-20T12:35:35.018Z,35.70
2018-04-20T12:38:02.541Z,35.70
2018-04-20T12:40:30.000Z,34.20
2018-04-20T12:42:57.521Z,35.50
2018-04-20T12:45:24.993Z,34.20
2018-04-20T12:47:52.508Z,34.10
2018-04-20T12:50:20.010Z,34.10
2018-04-20T12:52:47.537Z,33.80
2018-04-20T12:55:15.077Z,35.20
2018-04-20T12:57:43.376Z,35.10
2018-04-20T13:00:10.830Z,35.00
2018-04-20T13:02:38.312Z,34.00
2018-04-20T13:05:05.792Z,34.30
2018-04-20T13:07:33.258Z,34.30
2018-04-20T13:10:00.759Z,34.30
2018-04-20T13:12:28.237Z,34.60
2018-04-20T13:14:55.736Z,34.60
2018-04-20T13:17:24.709Z,34.60
2018-04-20T13:19:52.198Z,34.60
2018-04-20T13:22:20.445Z,34.90
2018-04-20T13:24:47.955Z,34.90
2018-04-20T13:27:16.180Z,35.30
2018-04-20T13:29:43.651Z,35.20
2018-04-20T13:32:12.703Z,34.20
2018-04-20T13:34:40.159Z,34.20
2018-04-20T13:37:08.490Z,35.10
2018-04-20T13:39:35.912Z,35.10
2018-04-20T13:42:03.434Z,34.60
2018-04-20T13:44:31.661Z,34.50
2018-04-20T13:46:59.194Z,34.50
2018-04-20T13:49:26.653Z,36.20
2018-04-20T13:51:54.158Z,35.10
2018-04-20T13:54:21.633Z,35.30
2018-04-20T13:56:49.873Z,35.50
2018-04-20T13:59:17.407Z,35.50
2018-04-20T14:01:44.924Z,34.60
2018-04-20T14:04:12.389Z,35.50
2018-04-20T14:06:40.678Z,35.00
2018-04-20T14:09:08.171Z,34.80
2018-04-20T14:11:35.656Z,34.50
2018-04-20T14:14:03.923Z,35.00
2018-04-20T14:16:31.415Z,35.00
2018-04-20T14:18:59.691Z,34.70
2018-04-20T14:21:27.973Z,34.60
2018-04-20T14:23:56.201Z,34.10
2018-04-20T14:26:23.721Z,34.10
2018-04-20T14:28:51.993Z,33.70
2018-04-20T14:31:20.237Z,33.70
2018-04-20T14:33:49.217Z,33.40
2018-04-20T14:36:16.707Z,33.40
2018-04-20T14:38:44.986Z,33.70
2018-04-20T14:41:13.286Z,33.50
2018-04-20T14:43:40.774Z,33.30
2018-04-20T14:46:08.296Z,33.00
2018-04-20T14:48:36.549Z,33.60
2018-04-20T14:51:04.814Z,33.20
2018-04-20T14:53:32.350Z,33.20
2018-04-20T14:55:59.825Z,33.00
2018-04-20T14:58:27.328Z,32.70
2018-04-20T15:00:55.597Z,32.30
2018-04-20T15:03:23.860Z,32.80
2018-04-20T15:05:52.142Z,32.90
2018-04-20T15:08:20.392Z,32.10
2018-04-20T15:10:47.862Z,32.10
2018-04-20T15:13:15.503Z,32.50
2018-04-20T15:15:43.710Z,32.10
2018-04-20T15:18:11.971Z,31.40
2018-04-20T15:20:40.257Z,31.40
2018-04-20T15:23:08.541Z,31.20
2018-04-20T15:25:36.832Z,31.20
2018-04-20T15:28:05.073Z,32.00
2018-04-20T15:30:32.608Z,32.00
2018-04-20T15:33:00.069Z,30.80
2018-04-20T15:35:27.581Z,31.00
2018-04-20T15:37:55.857Z,31.30
2018-04-20T15:40:24.134Z,31.40
2018-04-20T15:42:52.358Z,31.10
2018-04-20T15:45:19.869Z,31.00
2018-04-20T15:47:48.121Z,30.90
2018-04-20T15:50:17.113Z,30.80
2018-04-20T15:52:44.620Z,30.80
2018-04-20T15:55:12.149Z,30.70
2018-04-20T15:57:39.629Z,30.90
2018-04-20T16:00:07.873Z,31.00
2018-04-20T16:02:35.365Z,30.80
2018-04-20T16:05:03.593Z,31.00
2018-04-20T16:07:31.117Z,31.00
2018-04-20T16:09:58.626Z,31.50
2018-04-20T16:12:26.150Z,30.90
2018-04-20T16:14:53.609Z,30.40
2018-04-20T16:17:21.116Z,30.80
2018-04-20T16:19:48.585Z,30.20
2018-04-20T16:22:16.862Z,30.10
2018-04-20T16:24:45.118Z,30.70
2018-04-20T16:27:12.625Z,30.70
2018-04-20T16:29:40.095Z,31.00
2018-04-20T16:32:07.584Z,30.60
2018-04-20T16:34:35.084Z,30.20
2018-04-20T16:37:03.349Z,31.00
2018-04-20T16:39:31.643Z,31.10
2018-04-20T16:41:59.131Z,31.10
2018-04-20T16:44:26.643Z,31.10
2018-04-20T16:46:54.873Z,31.40
2018-04-20T16:49:22.382Z,31.20
2018-04-20T16:51:50.634Z,31.70
2018-04-20T16:54:18.141Z,31.70
2018-04-20T16:56:45.613Z,31.30
2018-04-20T16:59:13.074Z,31.40
2018-04-20T17:01:40.572Z,31.80
2018-04-20T17:04:08.060Z,31.50
2018-04-20T17:06:35.595Z,31.10
2018-04-20T17:09:03.063Z,31.20
2018-04-20T17:11:31.314Z,31.10
2018-04-20T17:13:58.810Z,31.00
2018-04-20T17:16:27.100Z,30.70
2018-04-20T17:18:54.584Z,30.70
2018-04-20T17:21:22.092Z,31.20
2018-04-20T17:23:50.333Z,31.00
2018-04-20T17:26:17.854Z,31.00
2018-04-20T17:28:45.326Z,30.90
2018-04-20T17:31:12.786Z,31.60
2018-04-20T17:33:40.289Z,31.70
2018-04-20T17:36:07.784Z,32.40
2018-04-20T17:38:35.278Z,32.90
2018-04-20T17:41:02.772Z,34.20
2018-04-20T17:43:31.042Z,36.50
2018-04-20T17:45:58.555Z,36.60
2018-04-20T17:48:26.060Z,37.00
2018-04-20T17:50:53.543Z,37.50
2018-04-20T17:53:21.805Z,37.90
2018-04-20T17:55:50.033Z,37.40
2018-04-20T17:58:17.533Z,37.20
2018-04-20T18:00:45.017Z,37.60
2018-04-20T18:03:13.271Z,37.20
2018-04-20T18:05:41.517Z,37.40
2018-04-20T18:08:09.039Z,37.20
2018-04-20T18:10:36.529Z,36.70
2018-04-20T18:13:04.012Z,36.80
2018-04-20T18:15:31.513Z,36.60
2018-04-20T18:17:59.046Z,36.50
2018-04-20T18:20:26.527Z,36.60
2018-04-20T18:22:53.991Z,36.80
2018-04-20T18:25:21.485Z,36.70
2018-04-20T18:27:48.944Z,36.60
2018-04-20T18:30:16.449Z,37.20
2018-04-20T18:32:44.689Z,37.20
2018-04-20T18:35:12.192Z,37.00
2018-04-20T18:37:40.417Z,37.00
2018-04-20T18:40:07.965Z,36.70
2018-04-20T18:42:35.470Z,37.10
2018-04-20T18:45:02.939Z,37.00
2018-04-20T18:47:30.439Z,37.20
2018-04-20T18:49:57.924Z,37.00
2018-04-20T18:52:25.405Z,37.20
2018-04-20T18:54:53.677Z,37.70
2018-04-20T18:57:21.126Z,37.50
2018-04-20T18:59:48.623Z,39.30
2018-04-20T19:02:16.112Z,39.30
2018-04-20T19:04:43.665Z,38.70
2018-04-20T19:07:11.161Z,38.80
2018-04-20T19:09:38.672Z,38.30
2018-04-20T19:12:06.177Z,39.30
2018-04-20T19:14:33.680Z,40.10
2018-04-20T19:17:01.183Z,40.40
2018-04-20T19:19:28.669Z,38.90
2018-04-20T19:21:56.948Z,39.40
2018-04-20T19:24:25.212Z,40.00
2018-04-20T19:26:53.501Z,41.40
2018-04-20T19:29:21.733Z,41.20
2018-04-20T19:31:49.216Z,41.20
2018-04-20T19:34:16.733Z,40.70
2018-04-20T19:36:44.340Z,41.10
2018-04-20T19:39:12.570Z,43.50
2018-04-20T19:41:40.037Z,43.30
2018-04-20T19:44:07.556Z,45.70
2018-04-20T19:46:35.794Z,43.50
2018-04-20T19:49:03.297Z,43.30
2018-04-20T19:51:30.786Z,43.20
2018-04-20T19:53:58.281Z,42.00
2018-04-20T19:56:27.291Z,44.70
2018-04-20T19:58:54.803Z,44.70
2018-04-20T20:01:22.289Z,46.50
2018-04-20T20:03:49.769Z,51.10
2018-04-20T20:06:18.020Z,54.30
2018-04-20T20:08:45.533Z,54.20
2018-04-20T20:11:13.020Z,50.10
2018-04-20T20:13:40.542Z,51.10
2018-04-20T20:16:08.022Z,50.70
2018-04-20T20:18:35.526Z,57.00
2018-04-20T20:21:04.494Z,61.30
2018-04-20T20:23:31.991Z,61.30
2018-04-20T20:26:00.254Z,61.40
2018-04-20T20:28:27.756Z,61.40
2018-04-20T20:30:55.261Z,62.50
2018-04-20T20:33:22.741Z,62.50
2018-04-20T20:35:51.017Z,62.30
2018-04-20T20:38:19.707Z,62.30
2018-04-20T20:40:47.989Z,62.80
2018-04-20T20:43:16.235Z,63.00
2018-04-20T20:45:43.741Z,63.00
2018-04-20T20:48:11.221Z,64.40
2018-04-20T20:50:38.717Z,64.80
2018-04-20T20:53:06.221Z,64.10
2018-04-20T20:55:33.720Z,63.00
2018-04-20T20:58:01.182Z,63.50
2018-04-20T21:00:28.720Z,62.30
2018-04-20T21:02:56.206Z,62.70
2018-04-20T21:05:23.692Z,63.70
2018-04-20T21:07:51.978Z,65.40
2018-04-20T21:10:20.213Z,66.40
2018-04-20T21:12:47.709Z,66.30
2018-04-20T21:15:15.949Z,65.80
2018-04-20T21:17:43.452Z,65.80
2018-04-20T21:20:10.926Z,66.30
2018-04-20T21:22:38.430Z,66.00
2018-04-20T21:25:05.901Z,66.70
2018-04-20T21:27:33.380Z,66.40
2018-04-20T21:30:01.621Z,66.50
2018-04-20T21:32:29.127Z,66.50
2018-04-20T21:34:56.605Z,67.10
2018-04-20T21:37:24.132Z,67.60
2018-04-20T21:39:52.383Z,68.10
2018-04-20T21:42:19.897Z,68.00
2018-04-20T21:44:47.401Z,68.60
2018-04-20T21:47:14.920Z,68.60
2018-04-20T21:49:42.419Z,68.90
2018-04-20T21:52:09.923Z,69.10
2018-04-20T21:54:37.421Z,69.70
2018-04-20T21:57:04.897Z,70.10
2018-04-20T21:59:32.395Z,70.50
2018-04-20T22:01:59.891Z,70.40
2018-04-20T22:04:27.384Z,70.00
2018-04-20T22:06:55.643Z,70.40
2018-04-20T22:09:23.149Z,70.30
2018-04-20T22:11:50.645Z,70.00
2018-04-20T22:14:18.162Z,70.90
2018-04-20T22:16:46.431Z,71.30
2018-04-20T22:19:13.890Z,71.40
2018-04-20T22:21:42.144Z,71.30
2018-04-20T22:24:09.669Z,71.30
2018-04-20T22:26:37.191Z,72.10
2018-04-20T22:29:04.655Z,71.60
2018-04-20T22:31:32.173Z,71.90
2018-04-20T22:33:59.648Z,72.50
2018-04-20T22:36:27.924Z,72.80
2018-04-20T22:38:56.165Z,73.00
2018-04-20T22:41:23.664Z,73.00
2018-04-20T22:43:51.937Z,74.00
2018-04-20T22:46:20.165Z,74.30
2018-04-20T22:48:47.649Z,74.30
2018-04-20T22:51:15.113Z,74.00
2018-04-20T22:53:42.628Z,73.90
2018-04-20T22:56:10.117Z,74.20
2018-04-20T22:58:37.569Z,73.60
2018-04-20T23:01:05.091Z,73.90
2018-04-20T23:03:32.550Z,74.40
2018-04-20T23:06:00.061Z,74.40
2018-04-20T23:08:28.331Z,75.20
2018-04-20T23:10:55.831Z,75.20
2018-04-20T23:13:24.070Z,75.50
2018-04-20T23:15:51.569Z,75.50
2018-04-20T23:18:19.040Z,75.70
2018-04-20T23:20:46.540Z,76.10
2018-04-20T23:23:14.018Z,76.50
2018-04-20T23:25:41.530Z,76.60
2018-04-20T23:28:08.985Z,77.40
2018-04-20T23:30:36.457Z,77.70
2018-04-20T23:33:03.952Z,77.30
2018-04-20T23:35:31.420Z,77.70
2018-04-20T23:37:59.687Z,77.80
2018-04-20T23:40:27.148Z,77.70
2018-04-20T23:42:54.664Z,78.00
2018-04-20T23:45:22.120Z,78.40
2018-04-20T23:47:49.609Z,78.80
2018-04-20T23:50:17.084Z,79.10
2018-04-20T23:52:44.594Z,79.20
2018-04-20T23:55:12.047Z,79.30
2018-04-20T23:57:39.517Z,79.40
